Observations for Trim Patrick St
| Time | AQI | Temp °C | Hum % | Pres Pa | CO μg/m³ | H₂S μg/m³ | NO μg/m³ | NO₂ μg/m³ | O₃ μg/m³ | SO₂ μg/m³ | PM1 μg/m³ | PM2.5 μg/m³ | PM10 μg/m³ |
|---|---|---|---|---|---|---|---|---|---|---|---|---|---|
| Saturday 1 August 2026 | |||||||||||||
| 02:19 | 2 | 13 | 71 | 38,460 | 0.3 | 2.89 | 3.72 | 19.51 | 44.32 | 0 | 6.29 | 11.57 | 12.73 |
| 02:18 | 2 | 13 | 72 | 38,460 | 0.3 | 3.33 | 3.71 | 19.78 | 47.14 | 0 | 5.43 | 11.47 | 12.62 |
| 02:17 | 2 | 13 | 72 | 38,460 | 0.31 | 3.36 | 3.73 | 16.68 | 50.36 | 0 | 6.29 | 10.77 | 11.85 |
| 02:16 | 2 | 13 | 72 | 38,460 | 0.3 | 3.15 | 3.73 | 18.62 | 44.07 | 0 | 6.29 | 10.04 | 11.04 |
| 02:15 | 2 | 13 | 70 | 38,460 | 0.3 | 3.02 | 3.6 | 15.5 | 37.67 | 0 | 6.29 | 10.93 | 12.02 |
| 02:14 | 2 | 13 | 70 | 38,460 | 0.31 | 2.74 | 3.37 | 21.28 | 40.82 | 0 | 5.43 | 10.94 | 12.03 |
| 02:13 | 2 | 13.1 | 70 | 38,460 | 0.3 | 2.82 | 3.14 | 14.74 | 43.75 | 0 | 7.14 | 10.18 | 11.2 |
| 02:11 | 2 | 13.1 | 72 | 38,460 | 0.3 | 3.9 | 3.06 | 24.78 | 51.97 | 0 | 5.43 | 11.48 | 12.63 |
| 02:10 | 2 | 13.1 | 71 | 38,460 | 0.3 | 1.81 | 3.6 | 12.9 | 38.29 | 0 | 5.43 | 10.12 | 11.13 |
| 02:09 | 2 | 13.1 | 69 | 38,460 | 0.3 | 2.48 | 3.51 | 19.84 | 43.84 | 0 | 5.43 | 12.42 | 13.66 |
| 02:08 | 2 | 13.1 | 69 | 38,460 | 0.29 | 0.33 | 3.34 | 11.03 | 26.4 | 0 | 6.29 | 12.42 | 13.66 |
| 02:07 | 2 | 13.1 | 68 | 38,460 | 0.29 | 2.95 | 3.28 | 15.37 | 24.49 | 0 | 3.71 | 8.88 | 9.77 |
| 02:05 | 2 | 13.1 | 71 | 38,460 | 0.3 | 3.18 | 3.67 | 21.47 | 47.84 | 0 | 7.14 | 11.58 | 12.74 |
| 02:03 | 2 | 13.1 | 72 | 38,460 | 0.29 | 3.54 | 3.71 | 14.62 | 31.85 | 0 | 7.14 | 11.49 | 12.64 |
| 02:02 | 2 | 13.2 | 71 | 38,460 | 0.28 | 3.83 | 3.66 | 19.77 | 49.23 | 0 | 6.29 | 12.3 | 13.53 |
| 02:00 | 2 | 13.2 | 70 | 38,460 | 0.29 | 3.13 | 3.63 | 19.13 | 47.29 | 0 | 5.43 | 10.94 | 12.03 |
| 01:59 | 2 | 13.2 | 70 | 38,460 | 0.27 | 3.21 | 3.64 | 13.73 | 39.01 | 0 | 8 | 13.09 | 14.4 |
| 01:57 | 2 | 13.2 | 70 | 38,460 | 0.28 | 3.47 | 3.64 | 23.37 | 49.43 | 0 | 5.43 | 11.67 | 12.84 |
| 01:53 | 2 | 13.3 | 70 | 38,460 | 0.29 | 2.87 | 3.59 | 16.17 | 45.39 | 0 | 4.57 | 10.88 | 11.97 |
| 01:52 | 2 | 13.3 | 70 | 38,460 | 0.29 | 1.76 | 3.6 | 15.77 | 38.37 | 0 | 6.29 | 11.65 | 12.82 |